createdAt,value
2019-01-15T00:03:33.991Z,55.63
2019-01-15T00:06:03.448Z,55.02
2019-01-15T00:08:33.116Z,55.34
2019-01-15T00:11:02.500Z,55.01
2019-01-15T00:13:32.146Z,54.05
2019-01-15T00:16:01.519Z,53.75
2019-01-15T00:18:31.140Z,53.24
2019-01-15T00:21:01.007Z,53.66
2019-01-15T00:23:30.567Z,53.33
2019-01-15T01:00:48.367Z,47.21
2019-01-15T01:03:18.029Z,47.06
2019-01-15T01:05:47.371Z,46.64
2019-01-15T01:08:17.045Z,46.19
2019-01-15T01:10:46.643Z,46.19
2019-01-15T01:30:38.256Z,45.08
2019-01-15T01:33:07.866Z,44.59
2019-01-15T01:35:37.241Z,44.70
2019-01-15T01:38:06.754Z,44.74
2019-01-15T01:40:36.331Z,44.69
2019-01-15T01:43:05.615Z,44.74
2019-01-15T01:45:35.347Z,44.92
2019-01-15T01:48:04.839Z,44.49
2019-01-15T01:50:34.336Z,44.85
2019-01-15T01:53:03.873Z,44.45
2019-01-15T01:55:33.562Z,44.57
2019-01-15T01:58:02.977Z,44.30
2019-01-15T02:00:32.511Z,44.58
2019-01-15T02:03:01.816Z,43.97
2019-01-15T02:05:31.256Z,44.63
2019-01-15T02:08:00.932Z,44.61
2019-01-15T02:10:30.439Z,44.49
2019-01-15T02:13:00.015Z,44.85
2019-01-15T02:15:29.719Z,44.84
2019-01-15T02:35:21.234Z,45.55
2019-01-15T02:37:50.920Z,44.91
2019-01-15T02:57:42.747Z,46.03
2019-01-15T03:00:18.173Z,46.60
2019-01-15T03:02:47.857Z,46.85
2019-01-15T03:05:18.015Z,46.56
2019-01-15T03:07:47.811Z,46.88
2019-01-15T03:10:18.235Z,46.46
2019-01-15T03:12:55.391Z,46.69
2019-01-15T03:15:22.345Z,46.47
2019-01-15T03:17:52.152Z,46.40
2019-01-15T03:20:21.757Z,46.85
2019-01-15T03:22:51.259Z,47.12
2019-01-15T03:25:20.992Z,46.48
2019-01-15T03:27:50.478Z,46.38
2019-01-15T03:30:21.933Z,46.39
2019-01-15T03:50:14.074Z,45.77
2019-01-15T03:52:43.622Z,45.82
2019-01-15T03:55:13.480Z,46.17
2019-01-15T03:57:43.650Z,46.03
2019-01-15T04:00:16.812Z,46.26
2019-01-15T04:02:46.593Z,45.90
2019-01-15T04:05:17.231Z,46.15
2019-01-15T04:07:46.891Z,46.46
2019-01-15T04:10:16.615Z,46.58
2019-01-15T04:12:46.070Z,46.18
2019-01-15T04:15:15.832Z,46.35
2019-01-15T04:17:45.704Z,46.66
2019-01-15T04:20:15.575Z,46.81
2019-01-15T04:22:45.220Z,47.00
2019-01-15T04:42:36.735Z,49.30
2019-01-15T04:45:07.447Z,49.43
2019-01-15T04:47:37.137Z,49.17
2019-01-15T04:50:06.980Z,49.65
2019-01-15T04:52:36.608Z,49.93
2019-01-15T04:55:06.708Z,50.23
2019-01-15T04:57:36.400Z,51.08
2019-01-15T05:00:08.692Z,51.13
2019-01-15T05:02:38.499Z,51.13
2019-01-15T05:05:08.452Z,51.55
2019-01-15T05:07:38.160Z,51.18
2019-01-15T05:10:09.206Z,51.87
2019-01-15T05:12:38.949Z,52.67
2019-01-15T05:32:30.495Z,54.07
2019-01-15T05:34:59.868Z,54.42
2019-01-15T05:37:29.497Z,54.75
2019-01-15T05:57:22.100Z,63.92
2019-01-15T05:59:51.559Z,66.53
2019-01-15T06:02:21.067Z,69.03
2019-01-15T06:04:50.827Z,69.86
2019-01-15T06:07:20.519Z,67.67
2019-01-15T06:09:50.004Z,66.81
2019-01-15T06:12:19.552Z,65.70
2019-01-15T06:14:52.964Z,65.68
2019-01-15T06:34:45.044Z,64.76
2019-01-15T06:54:37.507Z,63.91
2019-01-15T06:57:07.289Z,63.82
2019-01-15T06:59:37.042Z,64.14
2019-01-15T07:02:06.840Z,63.88
2019-01-15T07:04:43.622Z,63.08
2019-01-15T07:24:29.027Z,62.12
2019-01-15T07:26:59.005Z,62.90
2019-01-15T07:46:50.756Z,69.64
2019-01-15T07:49:20.695Z,69.56
2019-01-15T07:51:50.403Z,68.56
2019-01-15T07:54:20.039Z,67.64
2019-01-15T07:56:49.759Z,66.87
2019-01-15T08:16:41.275Z,60.96
2019-01-15T08:19:11.098Z,61.14
2019-01-15T08:39:02.123Z,58.46
2019-01-15T09:04:40.644Z,52.09
2019-01-15T09:07:10.411Z,51.90
2019-01-15T09:09:39.865Z,52.65
2019-01-15T09:12:09.489Z,51.78
2019-01-15T09:14:39.002Z,51.39
2019-01-15T09:17:11.118Z,51.78
2019-01-15T09:19:38.459Z,51.22
2019-01-15T09:39:30.019Z,48.98
2019-01-15T09:41:59.710Z,47.52
2019-01-15T09:44:34.077Z,47.16
2019-01-15T09:46:58.902Z,47.53
2019-01-15T09:49:28.780Z,46.68
2019-01-15T09:51:58.560Z,47.38
2019-01-15T09:54:28.265Z,46.62
2019-01-15T09:56:58.259Z,46.37
2019-01-15T09:59:27.972Z,46.89
2019-01-15T10:19:19.846Z,45.52
2019-01-15T10:21:49.383Z,44.24
2019-01-15T10:24:19.130Z,44.68
2019-01-15T10:26:48.992Z,45.55
2019-01-15T10:29:18.411Z,46.09
2019-01-15T10:31:59.209Z,46.10
2019-01-15T10:34:32.907Z,44.90
2019-01-15T10:37:01.715Z,44.69
2019-01-15T10:39:31.343Z,45.29
2019-01-15T10:42:00.841Z,45.68
2019-01-15T10:44:30.574Z,44.80
2019-01-15T10:47:00.247Z,44.43
2019-01-15T10:49:29.981Z,43.90
2019-01-15T10:51:59.387Z,43.47
2019-01-15T10:54:28.990Z,43.52
2019-01-15T10:56:58.677Z,43.98
2019-01-15T10:59:28.070Z,44.31
2019-01-15T11:01:57.831Z,44.57
2019-01-15T11:21:49.437Z,44.98
2019-01-15T11:24:18.984Z,44.52
2019-01-15T11:26:48.548Z,43.86
2019-01-15T11:29:18.483Z,43.35
2019-01-15T11:49:09.890Z,37.93
2019-01-15T12:09:10.007Z,33.91
2019-01-15T12:30:09.442Z,33.57
2019-01-15T12:32:43.899Z,32.52
2019-01-15T12:35:19.360Z,31.05
2019-01-15T13:08:56.739Z,31.31
2019-01-15T13:28:53.220Z,31.66
2019-01-15T13:33:36.781Z,32.94
2019-01-15T13:36:07.211Z,31.85
2019-01-15T14:00:15.800Z,38.51
2019-01-15T14:02:56.248Z,36.84
2019-01-15T14:05:34.880Z,35.65
2019-01-15T14:09:10.860Z,35.19
2019-01-15T14:11:45.582Z,34.83
2019-01-15T14:14:38.427Z,36.43
2019-01-15T14:18:16.153Z,35.77
2019-01-15T14:38:13.230Z,43.63
2019-01-15T14:40:50.236Z,44.21
2019-01-15T15:22:10.887Z,48.39
2019-01-15T15:24:45.696Z,49.08
2019-01-15T15:27:28.454Z,49.03
2019-01-15T15:30:06.178Z,49.67
2019-01-15T15:32:40.988Z,49.94
2019-01-15T15:35:30.043Z,49.37
2019-01-15T15:38:10.715Z,50.35
2019-01-15T15:41:46.161Z,49.46
2019-01-15T15:44:31.831Z,49.38
2019-01-15T15:58:57.722Z,50.69
2019-01-15T16:01:32.626Z,51.13
2019-01-15T16:04:22.322Z,50.50
2019-01-15T16:06:58.055Z,50.87
2019-01-15T16:09:33.574Z,50.83
2019-01-15T16:12:09.992Z,50.75
2019-01-15T16:14:43.895Z,50.96
2019-01-15T16:17:30.630Z,51.23
2019-01-15T16:20:21.982Z,51.21
2019-01-15T16:23:10.733Z,51.56
2019-01-15T16:27:48.310Z,51.79
2019-01-15T16:30:29.004Z,51.58
2019-01-15T16:33:03.824Z,51.28
2019-01-15T16:35:41.153Z,51.08
2019-01-15T16:38:23.755Z,51.85
2019-01-15T16:40:58.292Z,51.64
2019-01-15T16:43:33.118Z,51.09
2019-01-15T16:46:12.691Z,51.86
2019-01-15T16:48:49.735Z,51.37
2019-01-15T16:51:24.432Z,51.24
2019-01-15T16:53:59.213Z,51.68
2019-01-15T16:56:34.028Z,51.94
2019-01-15T16:59:09.111Z,52.04
2019-01-15T17:01:57.987Z,52.72
2019-01-15T17:04:42.919Z,52.37
2019-01-15T17:08:17.679Z,51.82
2019-01-15T17:12:55.538Z,52.15
2019-01-15T17:17:36.530Z,51.85
2019-01-15T17:20:16.842Z,51.75
2019-01-15T17:22:51.670Z,52.03
2019-01-15T17:25:29.784Z,52.07
2019-01-15T17:30:10.399Z,51.84
2019-01-15T17:32:47.419Z,52.68
2019-01-15T17:35:21.310Z,52.52
2019-01-15T17:37:56.147Z,52.10
2019-01-15T17:40:31.063Z,54.75
2019-01-15T17:43:05.562Z,51.97
2019-01-15T17:45:45.223Z,52.44
2019-01-15T17:48:19.027Z,51.92
2019-01-15T17:50:54.510Z,51.78
2019-01-15T17:53:32.859Z,52.18
2019-01-15T17:56:12.346Z,51.69
2019-01-15T17:58:46.886Z,52.59
2019-01-15T18:01:36.579Z,52.77
2019-01-15T18:04:16.232Z,53.05
2019-01-15T18:08:57.988Z,52.85
2019-01-15T18:12:06.986Z,52.98
2019-01-15T18:14:41.809Z,53.55
2019-01-15T18:17:16.754Z,53.76
2019-01-15T18:19:51.699Z,53.83
2019-01-15T18:22:28.396Z,53.83
2019-01-15T18:25:02.936Z,54.12
2019-01-15T18:27:37.559Z,53.77
2019-01-15T18:30:19.804Z,54.01
2019-01-15T18:32:59.578Z,54.76
2019-01-15T18:36:08.687Z,54.62
2019-01-15T18:39:43.589Z,54.87
2019-01-15T18:43:20.436Z,54.65
2019-01-15T18:46:26.443Z,55.26
2019-01-15T18:49:02.859Z,55.21
2019-01-15T18:53:46.646Z,54.87
2019-01-15T18:56:27.186Z,55.63
2019-01-15T18:59:05.258Z,55.38
2019-01-15T19:03:45.025Z,55.67
2019-01-15T19:06:19.707Z,56.39
2019-01-15T19:09:54.259Z,56.43
2019-01-15T19:12:30.854Z,56.28
2019-01-15T19:15:17.546Z,58.93
2019-01-15T19:17:57.920Z,57.70
2019-01-15T19:20:33.947Z,56.05
2019-01-15T19:24:12.445Z,56.02
2019-01-15T19:26:54.139Z,57.35
2019-01-15T19:29:30.896Z,57.17
2019-01-15T19:32:05.798Z,58.03
2019-01-15T19:34:47.557Z,58.05
2019-01-15T19:38:24.424Z,58.48
2019-01-15T19:41:32.384Z,58.43
2019-01-15T19:44:12.106Z,58.18
2019-01-15T19:46:46.761Z,58.49
2019-01-15T19:49:35.759Z,58.65
2019-01-15T19:52:14.588Z,58.69
2019-01-15T19:54:49.418Z,59.50
2019-01-15T19:57:56.353Z,58.95
2019-01-15T20:00:30.973Z,59.09
2019-01-15T20:03:06.086Z,58.64
2019-01-15T20:06:43.934Z,59.14
2019-01-15T20:09:18.939Z,59.91
2019-01-15T20:11:53.864Z,59.70
2019-01-15T20:14:28.549Z,59.78
2019-01-15T20:17:03.422Z,59.83
2019-01-15T20:19:40.131Z,59.47
2019-01-15T20:22:18.291Z,59.47
2019-01-15T20:25:27.338Z,59.49
2019-01-15T20:29:02.008Z,59.65
2019-01-15T20:31:41.566Z,59.68
2019-01-15T20:34:16.164Z,60.25
2019-01-15T20:36:53.013Z,59.58
2019-01-15T20:39:44.885Z,59.70
2019-01-15T20:43:17.323Z,60.37
2019-01-15T20:45:52.125Z,60.23
2019-01-15T20:49:26.428Z,60.57
2019-01-15T20:52:01.256Z,60.55
2019-01-15T20:54:36.010Z,60.96
2019-01-15T20:57:10.885Z,60.96
2019-01-15T20:59:44.765Z,61.06
2019-01-15T21:02:19.479Z,61.32
2019-01-15T21:04:54.167Z,61.11
2019-01-15T21:08:00.109Z,60.61
2019-01-15T21:11:34.870Z,60.66
2019-01-15T21:16:13.303Z,60.69
2019-01-15T21:18:48.170Z,61.45
2019-01-15T21:23:25.697Z,61.15
2019-01-15T21:26:00.621Z,61.13
2019-01-15T21:28:36.199Z,61.40
2019-01-15T21:32:14.519Z,61.31
2019-01-15T21:34:49.503Z,61.25
2019-01-15T21:37:25.023Z,60.36
2019-01-15T21:39:59.958Z,60.58
2019-01-15T21:42:35.015Z,60.01
2019-01-15T21:45:09.696Z,60.48
2019-01-15T21:47:49.407Z,59.95
2019-01-15T21:50:26.964Z,60.17
2019-01-15T21:53:01.796Z,59.63
2019-01-15T21:55:38.410Z,59.20
2019-01-15T21:58:14.010Z,58.95
2019-01-15T22:00:49.024Z,59.32
2019-01-15T22:04:23.660Z,58.66
2019-01-15T22:07:02.548Z,59.35
2019-01-15T22:09:42.199Z,58.99
2019-01-15T22:13:18.844Z,58.49
2019-01-15T22:16:51.231Z,58.99
2019-01-15T22:19:35.714Z,58.47
2019-01-15T22:22:10.343Z,58.81
2019-01-15T22:26:51.991Z,58.86
2019-01-15T22:29:38.750Z,58.91
2019-01-15T22:34:16.002Z,59.15
2019-01-15T22:37:52.606Z,59.28
2019-01-15T22:40:35.216Z,58.80
2019-01-15T22:43:16.127Z,59.53
2019-01-15T22:45:50.940Z,59.79
2019-01-15T22:48:29.447Z,59.12
2019-01-15T22:51:04.008Z,59.71
2019-01-15T22:53:38.644Z,60.23
2019-01-15T22:56:13.407Z,60.27
2019-01-15T22:58:54.058Z,59.65
2019-01-15T23:01:40.443Z,59.64
2019-01-15T23:04:14.316Z,59.62
2019-01-15T23:06:51.196Z,59.04
2019-01-15T23:09:36.960Z,59.82
2019-01-15T23:12:43.825Z,59.25
2019-01-15T23:15:17.672Z,59.16
2019-01-15T23:18:50.040Z,59.47
2019-01-15T23:23:28.547Z,60.15
2019-01-15T23:27:02.262Z,60.11
2019-01-15T23:30:09.744Z,60.17
2019-01-15T23:32:48.327Z,60.84
2019-01-15T23:35:23.095Z,61.07
2019-01-15T23:37:57.884Z,61.00
2019-01-15T23:40:32.627Z,61.34
2019-01-15T23:43:07.664Z,61.42
2019-01-15T23:45:52.253Z,61.22
2019-01-15T23:48:25.788Z,61.35
2019-01-15T23:52:00.049Z,62.25
2019-01-15T23:54:35.015Z,62.20
2019-01-15T23:57:09.753Z,61.80
2019-01-15T23:59:51.520Z,61.69
